sensor_id;sensor_type;location;lat;lon;timestamp;temperature;humidity
21807;DHT22;11065;50.786;7.840;2022-11-12T00:02:07;6.50;49.80
21807;DHT22;11065;50.786;7.840;2022-11-12T00:04:53;6.50;49.80
21807;DHT22;11065;50.786;7.840;2022-11-12T00:07:38;6.50;49.90
21807;DHT22;11065;50.786;7.840;2022-11-12T00:10:24;6.40;49.90
21807;DHT22;11065;50.786;7.840;2022-11-12T00:13:09;6.40;49.90
21807;DHT22;11065;50.786;7.840;2022-11-12T00:15:55;6.40;49.90
21807;DHT22;11065;50.786;7.840;2022-11-12T00:18:40;6.40;49.90
21807;DHT22;11065;50.786;7.840;2022-11-12T00:21:26;6.30;49.90
21807;DHT22;11065;50.786;7.840;2022-11-12T00:24:11;6.30;50.00
21807;DHT22;11065;50.786;7.840;2022-11-12T00:26:56;6.30;50.00
21807;DHT22;11065;50.786;7.840;2022-11-12T00:29:42;6.30;50.00
21807;DHT22;11065;50.786;7.840;2022-11-12T00:32:27;6.30;50.00
21807;DHT22;11065;50.786;7.840;2022-11-12T00:35:13;6.30;50.10
21807;DHT22;11065;50.786;7.840;2022-11-12T00:37:59;6.20;50.00
21807;DHT22;11065;50.786;7.840;2022-11-12T00:40:44;6.20;50.10
21807;DHT22;11065;50.786;7.840;2022-11-12T00:43:29;6.20;50.10
21807;DHT22;11065;50.786;7.840;2022-11-12T00:46:16;6.20;50.10
21807;DHT22;11065;50.786;7.840;2022-11-12T00:49:01;6.10;50.10
21807;DHT22;11065;50.786;7.840;2022-11-12T00:51:46;6.10;50.20
21807;DHT22;11065;50.786;7.840;2022-11-12T00:54:32;6.10;50.20
21807;DHT22;11065;50.786;7.840;2022-11-12T00:57:18;6.10;50.30
21807;DHT22;11065;50.786;7.840;2022-11-12T01:00:05;6.10;50.30
21807;DHT22;11065;50.786;7.840;2022-11-12T01:02:51;6.00;50.30
21807;DHT22;11065;50.786;7.840;2022-11-12T01:05:36;6.00;50.30
21807;DHT22;11065;50.786;7.840;2022-11-12T01:08:22;6.00;50.40
21807;DHT22;11065;50.786;7.840;2022-11-12T01:11:15;6.00;50.40
21807;DHT22;11065;50.786;7.840;2022-11-12T01:14:03;6.00;50.50
21807;DHT22;11065;50.786;7.840;2022-11-12T01:16:48;6.00;50.50
21807;DHT22;11065;50.786;7.840;2022-11-12T01:19:34;6.00;50.50
21807;DHT22;11065;50.786;7.840;2022-11-12T01:22:20;6.00;50.50
21807;DHT22;11065;50.786;7.840;2022-11-12T01:25:05;5.90;50.50
21807;DHT22;11065;50.786;7.840;2022-11-12T01:27:51;5.90;50.50
21807;DHT22;11065;50.786;7.840;2022-11-12T01:30:37;5.90;50.60
21807;DHT22;11065;50.786;7.840;2022-11-12T01:33:22;5.90;50.60
21807;DHT22;11065;50.786;7.840;2022-11-12T01:36:08;5.90;50.60
21807;DHT22;11065;50.786;7.840;2022-11-12T01:38:54;5.80;50.60
21807;DHT22;11065;50.786;7.840;2022-11-12T01:41:40;5.80;50.50
21807;DHT22;11065;50.786;7.840;2022-11-12T01:44:29;5.80;50.50
21807;DHT22;11065;50.786;7.840;2022-11-12T01:47:28;5.80;50.60
21807;DHT22;11065;50.786;7.840;2022-11-12T01:50:23;5.80;50.70
21807;DHT22;11065;50.786;7.840;2022-11-12T01:53:10;5.70;50.60
21807;DHT22;11065;50.786;7.840;2022-11-12T01:55:57;5.70;50.50
21807;DHT22;11065;50.786;7.840;2022-11-12T01:58:45;5.70;50.50
21807;DHT22;11065;50.786;7.840;2022-11-12T02:01:33;5.70;50.60
21807;DHT22;11065;50.786;7.840;2022-11-12T02:04:20;5.70;50.60
21807;DHT22;11065;50.786;7.840;2022-11-12T02:07:06;5.70;50.60
21807;DHT22;11065;50.786;7.840;2022-11-12T02:09:52;5.60;50.60
21807;DHT22;11065;50.786;7.840;2022-11-12T02:12:38;5.60;50.60
21807;DHT22;11065;50.786;7.840;2022-11-12T02:15:43;5.60;50.60
21807;DHT22;11065;50.786;7.840;2022-11-12T02:18:28;5.60;50.60
21807;DHT22;11065;50.786;7.840;2022-11-12T02:21:17;5.50;50.50
21807;DHT22;11065;50.786;7.840;2022-11-12T02:24:04;5.50;50.60
21807;DHT22;11065;50.786;7.840;2022-11-12T02:26:53;5.50;50.60
21807;DHT22;11065;50.786;7.840;2022-11-12T02:29:39;5.50;50.70
21807;DHT22;11065;50.786;7.840;2022-11-12T02:32:30;5.40;50.70
21807;DHT22;11065;50.786;7.840;2022-11-12T02:35:15;5.40;50.70
21807;DHT22;11065;50.786;7.840;2022-11-12T02:38:01;5.40;50.70
21807;DHT22;11065;50.786;7.840;2022-11-12T02:40:46;5.40;50.80
21807;DHT22;11065;50.786;7.840;2022-11-12T02:43:32;5.40;50.70
21807;DHT22;11065;50.786;7.840;2022-11-12T02:46:17;5.40;50.70
21807;DHT22;11065;50.786;7.840;2022-11-12T02:49:02;5.40;50.70
21807;DHT22;11065;50.786;7.840;2022-11-12T02:51:48;5.40;50.80
21807;DHT22;11065;50.786;7.840;2022-11-12T02:54:33;5.30;50.80
21807;DHT22;11065;50.786;7.840;2022-11-12T02:57:18;5.40;50.90
21807;DHT22;11065;50.786;7.840;2022-11-12T03:00:10;5.30;50.80
21807;DHT22;11065;50.786;7.840;2022-11-12T03:02:55;5.30;50.90
21807;DHT22;11065;50.786;7.840;2022-11-12T03:05:44;5.30;50.80
21807;DHT22;11065;50.786;7.840;2022-11-12T03:08:30;5.30;50.80
21807;DHT22;11065;50.786;7.840;2022-11-12T03:11:16;5.20;50.70
21807;DHT22;11065;50.786;7.840;2022-11-12T03:14:02;5.20;50.80
21807;DHT22;11065;50.786;7.840;2022-11-12T03:16:47;5.20;50.70
21807;DHT22;11065;50.786;7.840;2022-11-12T03:19:32;5.20;50.80
21807;DHT22;11065;50.786;7.840;2022-11-12T03:22:18;5.20;50.80
21807;DHT22;11065;50.786;7.840;2022-11-12T03:25:04;5.10;50.80
21807;DHT22;11065;50.786;7.840;2022-11-12T03:28:02;5.10;50.80
21807;DHT22;11065;50.786;7.840;2022-11-12T03:30:48;5.10;51.00
21807;DHT22;11065;50.786;7.840;2022-11-12T03:33:33;5.10;50.80
21807;DHT22;11065;50.786;7.840;2022-11-12T03:36:18;5.10;50.90
21807;DHT22;11065;50.786;7.840;2022-11-12T03:39:04;5.10;50.90
21807;DHT22;11065;50.786;7.840;2022-11-12T03:41:49;5.00;50.90
21807;DHT22;11065;50.786;7.840;2022-11-12T03:44:35;5.00;50.90
21807;DHT22;11065;50.786;7.840;2022-11-12T03:47:20;5.00;50.90
21807;DHT22;11065;50.786;7.840;2022-11-12T03:50:05;5.00;50.90
21807;DHT22;11065;50.786;7.840;2022-11-12T03:52:54;5.00;51.00
21807;DHT22;11065;50.786;7.840;2022-11-12T03:55:41;5.00;51.00
21807;DHT22;11065;50.786;7.840;2022-11-12T03:58:26;4.90;51.00
21807;DHT22;11065;50.786;7.840;2022-11-12T04:01:12;4.90;51.00
21807;DHT22;11065;50.786;7.840;2022-11-12T04:03:57;4.90;50.90
21807;DHT22;11065;50.786;7.840;2022-11-12T04:06:43;4.90;51.00
21807;DHT22;11065;50.786;7.840;2022-11-12T04:09:46;4.90;51.10
21807;DHT22;11065;50.786;7.840;2022-11-12T04:12:32;4.90;51.00
21807;DHT22;11065;50.786;7.840;2022-11-12T04:15:36;4.80;51.00
21807;DHT22;11065;50.786;7.840;2022-11-12T04:18:21;4.80;51.00
21807;DHT22;11065;50.786;7.840;2022-11-12T04:21:50;4.80;51.00
21807;DHT22;11065;50.786;7.840;2022-11-12T04:24:40;4.80;51.20
21807;DHT22;11065;50.786;7.840;2022-11-12T04:27:45;4.80;51.10
21807;DHT22;11065;50.786;7.840;2022-11-12T04:30:30;4.70;51.00
21807;DHT22;11065;50.786;7.840;2022-11-12T04:33:16;4.70;51.10
21807;DHT22;11065;50.786;7.840;2022-11-12T04:36:01;4.70;51.10
21807;DHT22;11065;50.786;7.840;2022-11-12T04:38:46;4.70;51.20
21807;DHT22;11065;50.786;7.840;2022-11-12T04:41:32;4.70;51.20
21807;DHT22;11065;50.786;7.840;2022-11-12T04:44:52;4.70;51.20
21807;DHT22;11065;50.786;7.840;2022-11-12T04:47:43;4.60;51.10
21807;DHT22;11065;50.786;7.840;2022-11-12T04:50:29;4.60;51.20
21807;DHT22;11065;50.786;7.840;2022-11-12T04:53:15;4.60;51.20
21807;DHT22;11065;50.786;7.840;2022-11-12T04:56:01;4.70;51.30
21807;DHT22;11065;50.786;7.840;2022-11-12T04:58:46;4.60;51.30
21807;DHT22;11065;50.786;7.840;2022-11-12T05:01:31;4.60;51.40
21807;DHT22;11065;50.786;7.840;2022-11-12T05:04:17;4.60;51.40
21807;DHT22;11065;50.786;7.840;2022-11-12T05:07:03;4.60;51.40
21807;DHT22;11065;50.786;7.840;2022-11-12T05:09:48;4.60;51.40
21807;DHT22;11065;50.786;7.840;2022-11-12T05:12:33;4.50;51.40
21807;DHT22;11065;50.786;7.840;2022-11-12T05:15:19;4.60;51.40
21807;DHT22;11065;50.786;7.840;2022-11-12T05:18:04;4.50;51.30
21807;DHT22;11065;50.786;7.840;2022-11-12T05:20:52;4.50;51.40
21807;DHT22;11065;50.786;7.840;2022-11-12T05:23:37;4.50;51.40
21807;DHT22;11065;50.786;7.840;2022-11-12T05:26:22;4.50;51.40
21807;DHT22;11065;50.786;7.840;2022-11-12T05:29:08;4.50;51.50
21807;DHT22;11065;50.786;7.840;2022-11-12T05:31:54;4.50;51.50
21807;DHT22;11065;50.786;7.840;2022-11-12T05:34:40;4.50;51.50
21807;DHT22;11065;50.786;7.840;2022-11-12T05:37:26;4.50;51.50
21807;DHT22;11065;50.786;7.840;2022-11-12T05:40:11;4.40;51.50
21807;DHT22;11065;50.786;7.840;2022-11-12T05:42:57;4.40;51.50
21807;DHT22;11065;50.786;7.840;2022-11-12T05:45:43;4.40;51.50
21807;DHT22;11065;50.786;7.840;2022-11-12T05:48:28;4.50;51.60
21807;DHT22;11065;50.786;7.840;2022-11-12T05:51:14;4.40;51.60
21807;DHT22;11065;50.786;7.840;2022-11-12T05:54:00;4.40;51.60
21807;DHT22;11065;50.786;7.840;2022-11-12T05:56:46;4.40;51.60
21807;DHT22;11065;50.786;7.840;2022-11-12T05:59:31;4.40;51.60
21807;DHT22;11065;50.786;7.840;2022-11-12T06:02:17;4.40;51.70
21807;DHT22;11065;50.786;7.840;2022-11-12T06:05:02;4.40;51.60
21807;DHT22;11065;50.786;7.840;2022-11-12T06:07:47;4.40;51.60
21807;DHT22;11065;50.786;7.840;2022-11-12T06:10:33;4.30;51.60
21807;DHT22;11065;50.786;7.840;2022-11-12T06:13:19;4.30;51.60
21807;DHT22;11065;50.786;7.840;2022-11-12T06:16:05;4.30;51.60
21807;DHT22;11065;50.786;7.840;2022-11-12T06:18:51;4.30;51.70
21807;DHT22;11065;50.786;7.840;2022-11-12T06:21:36;4.30;51.70
21807;DHT22;11065;50.786;7.840;2022-11-12T06:24:22;4.30;51.70
21807;DHT22;11065;50.786;7.840;2022-11-12T06:27:07;4.30;51.70
21807;DHT22;11065;50.786;7.840;2022-11-12T06:29:53;4.30;51.70
21807;DHT22;11065;50.786;7.840;2022-11-12T06:32:38;4.30;51.80
21807;DHT22;11065;50.786;7.840;2022-11-12T06:35:24;4.30;51.80
21807;DHT22;11065;50.786;7.840;2022-11-12T06:38:09;4.30;51.80
21807;DHT22;11065;50.786;7.840;2022-11-12T06:40:55;4.30;51.80
21807;DHT22;11065;50.786;7.840;2022-11-12T06:43:41;4.30;51.80
21807;DHT22;11065;50.786;7.840;2022-11-12T06:46:26;4.30;51.90
21807;DHT22;11065;50.786;7.840;2022-11-12T06:49:12;4.20;52.30
21807;DHT22;11065;50.786;7.840;2022-11-12T06:51:57;4.20;51.90
21807;DHT22;11065;50.786;7.840;2022-11-12T06:54:43;4.20;51.90
21807;DHT22;11065;50.786;7.840;2022-11-12T06:57:28;4.20;51.80
21807;DHT22;11065;50.786;7.840;2022-11-12T07:00:14;4.20;51.90
21807;DHT22;11065;50.786;7.840;2022-11-12T07:03:07;4.20;51.90
21807;DHT22;11065;50.786;7.840;2022-11-12T07:05:53;4.20;51.90
21807;DHT22;11065;50.786;7.840;2022-11-12T07:08:40;4.20;51.90
21807;DHT22;11065;50.786;7.840;2022-11-12T07:11:26;4.20;52.00
21807;DHT22;11065;50.786;7.840;2022-11-12T07:14:11;4.20;52.00
21807;DHT22;11065;50.786;7.840;2022-11-12T07:16:56;4.20;52.00
21807;DHT22;11065;50.786;7.840;2022-11-12T07:19:42;4.20;52.00
21807;DHT22;11065;50.786;7.840;2022-11-12T07:22:27;4.20;52.10
21807;DHT22;11065;50.786;7.840;2022-11-12T07:25:12;4.20;52.10
21807;DHT22;11065;50.786;7.840;2022-11-12T07:27:58;4.20;52.10
21807;DHT22;11065;50.786;7.840;2022-11-12T07:30:43;4.30;52.20
21807;DHT22;11065;50.786;7.840;2022-11-12T07:33:29;4.20;52.10
21807;DHT22;11065;50.786;7.840;2022-11-12T07:36:17;4.30;52.20
21807;DHT22;11065;50.786;7.840;2022-11-12T07:39:03;4.30;52.30
21807;DHT22;11065;50.786;7.840;2022-11-12T07:41:49;4.30;52.30
21807;DHT22;11065;50.786;7.840;2022-11-12T07:44:35;4.30;52.30
21807;DHT22;11065;50.786;7.840;2022-11-12T07:47:20;4.40;52.40
21807;DHT22;11065;50.786;7.840;2022-11-12T07:50:06;4.40;52.50
21807;DHT22;11065;50.786;7.840;2022-11-12T07:52:51;4.40;52.60
21807;DHT22;11065;50.786;7.840;2022-11-12T07:55:37;4.50;52.70
21807;DHT22;11065;50.786;7.840;2022-11-12T07:58:23;4.60;52.80
21807;DHT22;11065;50.786;7.840;2022-11-12T08:01:21;4.70;52.90
21807;DHT22;11065;50.786;7.840;2022-11-12T08:04:09;4.80;53.00
21807;DHT22;11065;50.786;7.840;2022-11-12T08:06:54;4.90;53.00
21807;DHT22;11065;50.786;7.840;2022-11-12T08:09:40;5.00;53.00
21807;DHT22;11065;50.786;7.840;2022-11-12T08:12:25;5.10;53.10
21807;DHT22;11065;50.786;7.840;2022-11-12T08:15:12;5.20;53.10
21807;DHT22;11065;50.786;7.840;2022-11-12T08:17:58;5.30;53.00
21807;DHT22;11065;50.786;7.840;2022-11-12T08:20:43;5.40;52.90
21807;DHT22;11065;50.786;7.840;2022-11-12T08:23:29;5.50;52.70
21807;DHT22;11065;50.786;7.840;2022-11-12T08:26:17;5.60;52.70
21807;DHT22;11065;50.786;7.840;2022-11-12T08:29:03;5.70;52.70
21807;DHT22;11065;50.786;7.840;2022-11-12T08:31:53;5.80;52.70
21807;DHT22;11065;50.786;7.840;2022-11-12T08:34:38;5.80;52.70
21807;DHT22;11065;50.786;7.840;2022-11-12T08:37:25;5.90;52.70
21807;DHT22;11065;50.786;7.840;2022-11-12T08:40:11;6.00;52.70
21807;DHT22;11065;50.786;7.840;2022-11-12T08:43:05;6.00;52.60
21807;DHT22;11065;50.786;7.840;2022-11-12T08:45:50;6.10;52.80
21807;DHT22;11065;50.786;7.840;2022-11-12T08:48:36;6.30;53.20
21807;DHT22;11065;50.786;7.840;2022-11-12T08:51:21;6.60;54.30
21807;DHT22;11065;50.786;7.840;2022-11-12T08:54:07;7.00;54.20
21807;DHT22;11065;50.786;7.840;2022-11-12T08:56:52;7.40;54.40
21807;DHT22;11065;50.786;7.840;2022-11-12T08:59:38;8.00;54.60
21807;DHT22;11065;50.786;7.840;2022-11-12T09:02:23;8.60;55.10
21807;DHT22;11065;50.786;7.840;2022-11-12T09:05:08;9.40;55.60
21807;DHT22;11065;50.786;7.840;2022-11-12T09:08:02;10.30;55.90
21807;DHT22;11065;50.786;7.840;2022-11-12T09:10:49;11.10;55.40
21807;DHT22;11065;50.786;7.840;2022-11-12T09:13:34;12.00;55.40
21807;DHT22;11065;50.786;7.840;2022-11-12T09:16:20;12.80;54.80
21807;DHT22;11065;50.786;7.840;2022-11-12T09:19:05;13.60;54.30
21807;DHT22;11065;50.786;7.840;2022-11-12T09:21:51;14.30;53.70
21807;DHT22;11065;50.786;7.840;2022-11-12T09:24:36;14.90;53.10
21807;DHT22;11065;50.786;7.840;2022-11-12T09:27:21;15.50;52.20
21807;DHT22;11065;50.786;7.840;2022-11-12T09:30:07;16.00;50.90
21807;DHT22;11065;50.786;7.840;2022-11-12T09:32:56;16.10;49.30
21807;DHT22;11065;50.786;7.840;2022-11-12T09:35:44;16.10;47.90
21807;DHT22;11065;50.786;7.840;2022-11-12T09:38:30;15.90;47.20
21807;DHT22;11065;50.786;7.840;2022-11-12T09:41:18;15.50;46.60
21807;DHT22;11065;50.786;7.840;2022-11-12T09:44:16;15.20;46.50
21807;DHT22;11065;50.786;7.840;2022-11-12T09:47:08;14.70;46.30
21807;DHT22;11065;50.786;7.840;2022-11-12T09:50:18;14.30;46.40
21807;DHT22;11065;50.786;7.840;2022-11-12T09:53:15;13.80;46.40
21807;DHT22;11065;50.786;7.840;2022-11-12T09:56:05;13.50;46.80
21807;DHT22;11065;50.786;7.840;2022-11-12T09:58:51;13.10;46.90
21807;DHT22;11065;50.786;7.840;2022-11-12T10:21:48;15.30;52.60
21807;DHT22;11065;50.786;7.840;2022-11-12T10:24:36;16.30;52.30
21807;DHT22;11065;50.786;7.840;2022-11-12T10:27:27;17.40;52.40
21807;DHT22;11065;50.786;7.840;2022-11-12T10:30:19;18.40;51.60
21807;DHT22;11065;50.786;7.840;2022-11-12T10:33:05;19.30;51.20
21807;DHT22;11065;50.786;7.840;2022-11-12T10:35:52;20.20;50.60
21807;DHT22;11065;50.786;7.840;2022-11-12T10:38:37;20.90;49.60
21807;DHT22;11065;50.786;7.840;2022-11-12T10:41:28;21.70;49.30
21807;DHT22;11065;50.786;7.840;2022-11-12T10:44:24;22.40;48.50
21807;DHT22;11065;50.786;7.840;2022-11-12T10:47:30;23.10;46.70
21807;DHT22;11065;50.786;7.840;2022-11-12T10:50:24;23.70;45.70
21807;DHT22;11065;50.786;7.840;2022-11-12T10:53:11;24.20;46.10
21807;DHT22;11065;50.786;7.840;2022-11-12T10:56:02;24.70;45.60
21807;DHT22;11065;50.786;7.840;2022-11-12T10:59:15;25.10;44.30
21807;DHT22;11065;50.786;7.840;2022-11-12T11:02:00;25.20;41.70
21807;DHT22;11065;50.786;7.840;2022-11-12T11:04:45;25.40;43.30
21807;DHT22;11065;50.786;7.840;2022-11-12T11:07:31;25.40;43.00
21807;DHT22;11065;50.786;7.840;2022-11-12T11:10:32;25.50;42.90
21807;DHT22;11065;50.786;7.840;2022-11-12T11:13:20;25.70;41.50
21807;DHT22;11065;50.786;7.840;2022-11-12T11:16:09;25.80;42.40
21807;DHT22;11065;50.786;7.840;2022-11-12T11:18:59;26.00;42.10
21807;DHT22;11065;50.786;7.840;2022-11-12T11:21:55;26.20;41.30
21807;DHT22;11065;50.786;7.840;2022-11-12T11:24:44;26.20;40.00
21807;DHT22;11065;50.786;7.840;2022-11-12T11:31:31;26.10;38.80
21807;DHT22;11065;50.786;7.840;2022-11-12T11:34:42;26.00;38.80
21807;DHT22;11065;50.786;7.840;2022-11-12T11:37:24;26.00;39.40
21807;DHT22;11065;50.786;7.840;2022-11-12T11:40:29;25.90;38.70
21807;DHT22;11065;50.786;7.840;2022-11-12T11:43:47;25.90;38.50
21807;DHT22;11065;50.786;7.840;2022-11-12T11:52:49;25.80;37.70
21807;DHT22;11065;50.786;7.840;2022-11-12T11:55:59;25.40;37.10
21807;DHT22;11065;50.786;7.840;2022-11-12T11:59:04;24.90;36.90
21807;DHT22;11065;50.786;7.840;2022-11-12T12:05:34;23.50;37.50
21807;DHT22;11065;50.786;7.840;2022-11-12T12:18:01;21.90;39.90
21807;DHT22;11065;50.786;7.840;2022-11-12T12:21:00;21.60;40.10
21807;DHT22;11065;50.786;7.840;2022-11-12T12:23:52;21.40;40.50
21807;DHT22;11065;50.786;7.840;2022-11-12T12:27:01;21.30;40.80
21807;DHT22;11065;50.786;7.840;2022-11-12T12:29:54;21.10;40.90
21807;DHT22;11065;50.786;7.840;2022-11-12T12:32:56;21.00;41.10
21807;DHT22;11065;50.786;7.840;2022-11-12T12:38:52;20.80;41.20
21807;DHT22;11065;50.786;7.840;2022-11-12T12:42:02;20.70;41.40
21807;DHT22;11065;50.786;7.840;2022-11-12T12:44:54;20.70;41.40
21807;DHT22;11065;50.786;7.840;2022-11-12T12:47:45;20.60;41.50
21807;DHT22;11065;50.786;7.840;2022-11-12T12:50:32;20.50;41.50
21807;DHT22;11065;50.786;7.840;2022-11-12T12:58:57;20.40;41.70
21807;DHT22;11065;50.786;7.840;2022-11-12T13:01:57;20.30;41.70
21807;DHT22;11065;50.786;7.840;2022-11-12T13:04:56;20.30;41.60
21807;DHT22;11065;50.786;7.840;2022-11-12T13:07:47;20.20;41.70
21807;DHT22;11065;50.786;7.840;2022-11-12T13:16:06;20.00;42.00
21807;DHT22;11065;50.786;7.840;2022-11-12T13:21:37;19.80;42.00
21807;DHT22;11065;50.786;7.840;2022-11-12T13:33:29;19.60;42.40
21807;DHT22;11065;50.786;7.840;2022-11-12T13:36:35;19.50;42.40
21807;DHT22;11065;50.786;7.840;2022-11-12T13:39:21;19.40;42.40
21807;DHT22;11065;50.786;7.840;2022-11-12T13:42:15;19.30;42.40
21807;DHT22;11065;50.786;7.840;2022-11-12T13:45:25;19.20;42.60
21807;DHT22;11065;50.786;7.840;2022-11-12T13:48:16;19.30;42.70
21807;DHT22;11065;50.786;7.840;2022-11-12T13:51:46;19.10;42.80
21807;DHT22;11065;50.786;7.840;2022-11-12T13:54:36;19.10;43.00
21807;DHT22;11065;50.786;7.840;2022-11-12T13:57:26;19.00;43.30
21807;DHT22;11065;50.786;7.840;2022-11-12T14:03:06;19.00;43.40
21807;DHT22;11065;50.786;7.840;2022-11-12T14:05:52;18.90;43.40
21807;DHT22;11065;50.786;7.840;2022-11-12T14:12:21;18.80;43.80
21807;DHT22;11065;50.786;7.840;2022-11-12T14:15:27;18.70;43.80
21807;DHT22;11065;50.786;7.840;2022-11-12T14:18:22;18.60;43.60
21807;DHT22;11065;50.786;7.840;2022-11-12T14:21:15;18.40;43.70
21807;DHT22;11065;50.786;7.840;2022-11-12T14:24:02;18.30;43.90
21807;DHT22;11065;50.786;7.840;2022-11-12T14:26:48;18.20;44.00
21807;DHT22;11065;50.786;7.840;2022-11-12T14:29:34;18.10;44.10
21807;DHT22;11065;50.786;7.840;2022-11-12T14:32:27;17.90;44.30
21807;DHT22;11065;50.786;7.840;2022-11-12T14:38:19;17.70;44.60
21807;DHT22;11065;50.786;7.840;2022-11-12T14:41:09;17.50;44.90
21807;DHT22;11065;50.786;7.840;2022-11-12T14:43:58;17.50;44.80
21807;DHT22;11065;50.786;7.840;2022-11-12T14:46:56;17.40;45.00
21807;DHT22;11065;50.786;7.840;2022-11-12T14:49:45;17.20;45.10
21807;DHT22;11065;50.786;7.840;2022-11-12T14:52:36;17.10;45.20
21807;DHT22;11065;50.786;7.840;2022-11-12T14:55:31;17.00;45.40
21807;DHT22;11065;50.786;7.840;2022-11-12T14:58:19;16.90;45.60
21807;DHT22;11065;50.786;7.840;2022-11-12T15:04:24;16.60;46.00
21807;DHT22;11065;50.786;7.840;2022-11-12T15:07:27;16.60;45.70
21807;DHT22;11065;50.786;7.840;2022-11-12T15:13:24;16.30;46.40
21807;DHT22;11065;50.786;7.840;2022-11-12T15:16:22;16.20;46.00
21807;DHT22;11065;50.786;7.840;2022-11-12T15:19:22;16.10;46.20
21807;DHT22;11065;50.786;7.840;2022-11-12T15:22:20;16.00;46.50
21807;DHT22;11065;50.786;7.840;2022-11-12T15:28:21;15.80;46.40
21807;DHT22;11065;50.786;7.840;2022-11-12T15:31:20;15.70;46.40
21807;DHT22;11065;50.786;7.840;2022-11-12T15:37:25;15.50;47.10
21807;DHT22;11065;50.786;7.840;2022-11-12T15:40:17;15.30;46.50
21807;DHT22;11065;50.786;7.840;2022-11-12T15:43:03;15.20;46.70
21807;DHT22;11065;50.786;7.840;2022-11-12T15:45:55;15.10;46.70
21807;DHT22;11065;50.786;7.840;2022-11-12T15:48:41;15.00;46.70
21807;DHT22;11065;50.786;7.840;2022-11-12T15:51:26;14.90;46.80
21807;DHT22;11065;50.786;7.840;2022-11-12T15:54:12;14.80;46.90
21807;DHT22;11065;50.786;7.840;2022-11-12T15:56:57;14.80;47.00
21807;DHT22;11065;50.786;7.840;2022-11-12T15:59:43;14.70;47.10
21807;DHT22;11065;50.786;7.840;2022-11-12T16:02:29;14.60;47.10
21807;DHT22;11065;50.786;7.840;2022-11-12T16:05:16;14.50;47.20
21807;DHT22;11065;50.786;7.840;2022-11-12T16:08:01;14.40;47.30
21807;DHT22;11065;50.786;7.840;2022-11-12T16:10:47;14.30;47.30
21807;DHT22;11065;50.786;7.840;2022-11-12T16:13:33;14.20;47.30
21807;DHT22;11065;50.786;7.840;2022-11-12T16:16:18;14.20;47.40
21807;DHT22;11065;50.786;7.840;2022-11-12T16:19:11;14.10;47.40
21807;DHT22;11065;50.786;7.840;2022-11-12T16:21:58;14.10;47.70
21807;DHT22;11065;50.786;7.840;2022-11-12T16:24:44;14.00;47.50
21807;DHT22;11065;50.786;7.840;2022-11-12T16:27:29;13.90;47.60
21807;DHT22;11065;50.786;7.840;2022-11-12T16:30:19;13.80;47.60
21807;DHT22;11065;50.786;7.840;2022-11-12T16:33:05;13.80;47.80
21807;DHT22;11065;50.786;7.840;2022-11-12T16:35:50;13.70;47.80
21807;DHT22;11065;50.786;7.840;2022-11-12T16:38:36;13.60;47.80
21807;DHT22;11065;50.786;7.840;2022-11-12T16:41:21;13.60;47.90
21807;DHT22;11065;50.786;7.840;2022-11-12T16:44:06;13.50;48.00
21807;DHT22;11065;50.786;7.840;2022-11-12T16:46:52;13.50;48.00
21807;DHT22;11065;50.786;7.840;2022-11-12T16:49:38;13.40;48.10
21807;DHT22;11065;50.786;7.840;2022-11-12T16:52:23;13.40;48.10
21807;DHT22;11065;50.786;7.840;2022-11-12T16:55:10;13.30;48.20
21807;DHT22;11065;50.786;7.840;2022-11-12T16:57:55;13.20;48.20
21807;DHT22;11065;50.786;7.840;2022-11-12T17:00:43;13.20;48.30
21807;DHT22;11065;50.786;7.840;2022-11-12T17:03:30;13.10;48.40
21807;DHT22;11065;50.786;7.840;2022-11-12T17:06:15;13.10;48.40
21807;DHT22;11065;50.786;7.840;2022-11-12T17:09:01;13.00;48.40
21807;DHT22;11065;50.786;7.840;2022-11-12T17:11:46;12.90;48.40
21807;DHT22;11065;50.786;7.840;2022-11-12T17:14:31;12.90;48.50
21807;DHT22;11065;50.786;7.840;2022-11-12T17:17:17;12.80;48.60
21807;DHT22;11065;50.786;7.840;2022-11-12T17:20:03;12.70;48.60
21807;DHT22;11065;50.786;7.840;2022-11-12T17:22:48;12.70;48.70
21807;DHT22;11065;50.786;7.840;2022-11-12T17:25:34;12.60;48.80
21807;DHT22;11065;50.786;7.840;2022-11-12T17:28:19;12.60;48.80
21807;DHT22;11065;50.786;7.840;2022-11-12T17:31:09;12.60;48.90
21807;DHT22;11065;50.786;7.840;2022-11-12T17:33:55;12.50;49.00
21807;DHT22;11065;50.786;7.840;2022-11-12T17:36:40;12.50;49.00
21807;DHT22;11065;50.786;7.840;2022-11-12T17:39:28;12.40;49.00
21807;DHT22;11065;50.786;7.840;2022-11-12T17:42:13;12.40;49.20
21807;DHT22;11065;50.786;7.840;2022-11-12T17:44:58;12.40;49.30
21807;DHT22;11065;50.786;7.840;2022-11-12T17:47:44;12.40;49.30
21807;DHT22;11065;50.786;7.840;2022-11-12T17:50:29;12.30;49.40
21807;DHT22;11065;50.786;7.840;2022-11-12T17:53:15;12.30;49.50
21807;DHT22;11065;50.786;7.840;2022-11-12T17:56:02;12.20;49.40
21807;DHT22;11065;50.786;7.840;2022-11-12T17:58:48;12.20;49.50
21807;DHT22;11065;50.786;7.840;2022-11-12T18:01:34;12.20;49.60
21807;DHT22;11065;50.786;7.840;2022-11-12T18:04:20;12.10;49.70
21807;DHT22;11065;50.786;7.840;2022-11-12T18:07:08;12.10;49.80
21807;DHT22;11065;50.786;7.840;2022-11-12T18:09:54;12.10;49.90
21807;DHT22;11065;50.786;7.840;2022-11-12T18:12:39;12.10;49.90
21807;DHT22;11065;50.786;7.840;2022-11-12T18:15:24;12.00;49.90
21807;DHT22;11065;50.786;7.840;2022-11-12T18:18:10;12.00;50.00
21807;DHT22;11065;50.786;7.840;2022-11-12T18:20:55;12.00;50.00
21807;DHT22;11065;50.786;7.840;2022-11-12T18:23:43;12.00;50.10
21807;DHT22;11065;50.786;7.840;2022-11-12T18:26:28;11.90;50.10
21807;DHT22;11065;50.786;7.840;2022-11-12T18:29:13;11.90;50.10
21807;DHT22;11065;50.786;7.840;2022-11-12T18:31:59;11.90;50.20
21807;DHT22;11065;50.786;7.840;2022-11-12T18:34:44;11.90;50.30
21807;DHT22;11065;50.786;7.840;2022-11-12T18:37:30;11.90;50.30
21807;DHT22;11065;50.786;7.840;2022-11-12T18:40:15;11.90;50.30
21807;DHT22;11065;50.786;7.840;2022-11-12T18:43:01;11.80;50.30
21807;DHT22;11065;50.786;7.840;2022-11-12T18:45:55;11.80;50.30
21807;DHT22;11065;50.786;7.840;2022-11-12T18:48:43;11.80;50.50
21807;DHT22;11065;50.786;7.840;2022-11-12T18:51:28;11.70;50.30
21807;DHT22;11065;50.786;7.840;2022-11-12T18:54:13;11.70;50.40
21807;DHT22;11065;50.786;7.840;2022-11-12T18:57:00;11.70;50.50
21807;DHT22;11065;50.786;7.840;2022-11-12T18:59:45;11.70;50.50
21807;DHT22;11065;50.786;7.840;2022-11-12T19:02:31;11.60;50.50
21807;DHT22;11065;50.786;7.840;2022-11-12T19:05:17;11.60;50.50
21807;DHT22;11065;50.786;7.840;2022-11-12T19:08:04;11.60;50.60
21807;DHT22;11065;50.786;7.840;2022-11-12T19:10:59;11.50;50.60
21807;DHT22;11065;50.786;7.840;2022-11-12T19:13:49;11.50;50.80
21807;DHT22;11065;50.786;7.840;2022-11-12T19:16:34;11.50;50.70
21807;DHT22;11065;50.786;7.840;2022-11-12T19:19:20;11.40;50.50
21807;DHT22;11065;50.786;7.840;2022-11-12T19:22:05;11.40;50.60
21807;DHT22;11065;50.786;7.840;2022-11-12T19:24:51;11.30;50.60